createdAt,value
2017-09-26T00:01:19.536Z,7.97
2017-09-26T00:03:47.271Z,8.30
2017-09-26T00:06:15.029Z,9.40
2017-09-26T00:08:42.845Z,8.03
2017-09-26T00:11:10.640Z,6.83
2017-09-26T00:13:38.374Z,8.93
2017-09-26T00:16:06.100Z,10.47
2017-09-26T00:18:33.865Z,12.90
2017-09-26T00:21:01.630Z,11.57
2017-09-26T00:23:29.430Z,8.93
2017-09-26T00:25:57.227Z,7.90
2017-09-26T00:28:24.952Z,8.07
2017-09-26T00:30:52.721Z,10.23
2017-09-26T00:33:20.528Z,8.23
2017-09-26T00:35:48.998Z,9.00
2017-09-26T00:38:16.932Z,7.87
2017-09-26T00:40:44.698Z,10.03
2017-09-26T00:43:12.530Z,9.13
2017-09-26T00:45:40.399Z,11.70
2017-09-26T00:48:08.128Z,9.43
2017-09-26T00:50:35.939Z,7.50
2017-09-26T00:53:03.911Z,8.17
2017-09-26T00:55:31.654Z,9.33
2017-09-26T00:57:59.484Z,7.83
2017-09-26T01:00:30.584Z,10.60
2017-09-26T01:02:58.384Z,8.20
2017-09-26T01:05:31.847Z,12.10
2017-09-26T01:07:59.654Z,8.17
2017-09-26T01:10:27.402Z,8.90
2017-09-26T01:12:55.247Z,8.03
2017-09-26T01:15:22.987Z,7.53
2017-09-26T01:17:50.790Z,11.33
2017-09-26T01:20:18.649Z,8.70
2017-09-26T01:22:46.416Z,8.30
2017-09-26T01:25:14.272Z,8.43
2017-09-26T01:27:42.077Z,9.20
2017-09-26T01:30:09.791Z,9.47
2017-09-26T01:32:37.598Z,8.50
2017-09-26T01:35:05.372Z,11.80
2017-09-26T01:37:33.165Z,11.33
2017-09-26T01:40:00.901Z,11.77
2017-09-26T01:42:29.480Z,11.87
2017-09-26T01:44:57.273Z,12.00
2017-09-26T01:47:25.029Z,11.73
2017-09-26T01:49:52.862Z,10.07
2017-09-26T01:52:21.154Z,9.67
2017-09-26T01:54:48.961Z,8.27
2017-09-26T01:57:17.072Z,10.10
2017-09-26T01:59:45.615Z,9.10
2017-09-26T02:02:13.361Z,8.27
2017-09-26T02:04:41.094Z,7.90
2017-09-26T02:07:08.833Z,10.20
2017-09-26T02:09:36.663Z,9.37
2017-09-26T02:12:04.423Z,7.83
2017-09-26T02:14:32.217Z,7.87
2017-09-26T02:17:00.030Z,8.47
2017-09-26T02:19:27.836Z,10.40
2017-09-26T02:21:55.625Z,8.60
2017-09-26T02:24:23.442Z,7.60
2017-09-26T02:26:51.235Z,11.13
2017-09-26T02:29:19.008Z,8.23
2017-09-26T02:31:46.891Z,8.20
2017-09-26T02:34:14.677Z,7.43
2017-09-26T02:36:43.167Z,7.97
2017-09-26T02:39:10.887Z,7.47
2017-09-26T02:41:38.629Z,7.63
2017-09-26T02:44:06.444Z,9.73
2017-09-26T02:46:34.258Z,7.63
2017-09-26T02:49:02.004Z,8.57
2017-09-26T02:51:29.819Z,9.10
2017-09-26T02:53:57.611Z,12.30
2017-09-26T02:56:25.355Z,11.70
2017-09-26T02:58:53.173Z,10.23
2017-09-26T03:01:20.977Z,11.73
2017-09-26T03:03:48.702Z,9.57
2017-09-26T03:06:16.530Z,9.37
2017-09-26T03:08:44.326Z,8.97
2017-09-26T03:11:12.897Z,11.27
2017-09-26T03:13:40.906Z,10.50
2017-09-26T03:16:08.709Z,7.93
2017-09-26T03:18:36.531Z,10.63
2017-09-26T03:21:04.281Z,12.23
2017-09-26T03:23:32.051Z,9.83
2017-09-26T03:25:59.801Z,9.43
2017-09-26T03:28:27.612Z,14.97
2017-09-26T03:30:55.485Z,12.30
2017-09-26T03:33:23.302Z,10.77
2017-09-26T03:35:51.198Z,12.33
2017-09-26T03:38:18.982Z,11.20
2017-09-26T03:40:46.761Z,10.67
2017-09-26T03:43:14.655Z,11.50
2017-09-26T03:45:42.430Z,11.33
2017-09-26T03:48:10.206Z,11.13
2017-09-26T03:50:38.019Z,10.73
2017-09-26T03:53:05.833Z,11.33
2017-09-26T03:55:33.614Z,9.70
2017-09-26T03:58:01.553Z,12.13
2017-09-26T04:00:29.412Z,11.63
2017-09-26T04:02:57.314Z,13.90
2017-09-26T04:05:25.066Z,11.37
2017-09-26T04:07:52.938Z,13.63
2017-09-26T04:10:20.711Z,11.73
2017-09-26T04:12:48.477Z,12.57
2017-09-26T04:15:16.320Z,13.43
2017-09-26T04:17:44.061Z,11.77
2017-09-26T04:20:11.923Z,11.60
2017-09-26T04:22:39.767Z,11.57
2017-09-26T04:25:07.576Z,12.20
2017-09-26T04:27:35.823Z,19.67
2017-09-26T04:30:03.679Z,12.53
2017-09-26T04:32:31.666Z,17.03
2017-09-26T04:34:59.528Z,14.80
2017-09-26T04:37:28.251Z,12.97
2017-09-26T04:39:56.182Z,13.70
2017-09-26T04:42:24.043Z,16.17
2017-09-26T04:44:51.853Z,14.20
2017-09-26T04:47:20.148Z,15.10
2017-09-26T04:49:47.982Z,14.80
2017-09-26T04:52:16.933Z,11.97
2017-09-26T04:54:44.761Z,13.90
2017-09-26T04:57:12.506Z,11.40
2017-09-26T04:59:41.182Z,11.43
2017-09-26T05:02:08.900Z,10.00
2017-09-26T05:04:36.708Z,10.67
2017-09-26T05:07:04.555Z,9.93
2017-09-26T05:09:32.360Z,10.77
2017-09-26T05:12:00.193Z,14.67
2017-09-26T05:14:28.018Z,9.83
2017-09-26T05:16:57.018Z,9.63
2017-09-26T05:19:24.873Z,12.67
2017-09-26T05:21:53.446Z,10.73
2017-09-26T05:24:22.177Z,10.90
2017-09-26T05:26:49.925Z,12.60
2017-09-26T05:29:17.707Z,10.83
2017-09-26T05:31:46.116Z,10.03
2017-09-26T05:34:14.121Z,11.90
2017-09-26T05:36:41.971Z,10.97
2017-09-26T05:39:09.852Z,13.10
2017-09-26T05:41:37.588Z,12.20
2017-09-26T05:44:05.376Z,11.87
2017-09-26T05:46:33.131Z,12.30
2017-09-26T05:49:00.971Z,12.43
2017-09-26T05:51:34.925Z,11.77
2017-09-26T05:54:02.749Z,15.50
2017-09-26T05:56:30.509Z,12.43
2017-09-26T05:58:58.993Z,13.67
2017-09-26T06:01:26.805Z,14.20
2017-09-26T06:03:54.589Z,12.00
2017-09-26T06:06:22.398Z,11.10
2017-09-26T06:08:50.152Z,10.07
2017-09-26T06:11:17.956Z,12.17
2017-09-26T06:13:45.823Z,12.53
2017-09-26T06:16:13.562Z,13.73
2017-09-26T06:18:41.371Z,14.50
2017-09-26T06:21:09.318Z,15.30
2017-09-26T06:23:37.135Z,24.83
2017-09-26T06:26:05.051Z,15.70
2017-09-26T06:28:32.925Z,13.43
2017-09-26T06:31:00.684Z,12.90
2017-09-26T06:33:28.512Z,13.10
2017-09-26T06:35:56.400Z,12.20
2017-09-26T06:38:24.274Z,13.93
2017-09-26T06:40:52.086Z,11.80
2017-09-26T06:43:19.944Z,17.27
2017-09-26T06:45:47.721Z,14.60
2017-09-26T06:48:15.580Z,15.13
2017-09-26T06:50:43.316Z,11.90
2017-09-26T06:53:11.117Z,18.60
2017-09-26T06:55:38.851Z,15.30
2017-09-26T06:58:06.605Z,16.33
2017-09-26T07:00:35.157Z,18.93
2017-09-26T07:03:02.899Z,21.50
2017-09-26T07:05:30.753Z,30.07
2017-09-26T07:07:58.482Z,24.37
2017-09-26T07:10:26.227Z,17.80
2017-09-26T07:12:54.035Z,19.73
2017-09-26T07:15:21.784Z,18.90
2017-09-26T07:17:51.969Z,17.87
2017-09-26T07:20:19.702Z,17.80
2017-09-26T07:22:47.457Z,20.50
2017-09-26T07:25:15.194Z,21.80
2017-09-26T07:27:42.921Z,23.23
2017-09-26T07:30:10.813Z,22.20
2017-09-26T07:32:38.557Z,23.37
2017-09-26T07:35:06.402Z,23.10
2017-09-26T07:37:34.171Z,20.47
2017-09-26T07:40:01.900Z,22.20
2017-09-26T07:42:29.722Z,18.83
2017-09-26T07:44:57.653Z,20.37
2017-09-26T07:47:25.441Z,29.10
2017-09-26T07:49:53.230Z,22.53
2017-09-26T07:52:21.044Z,24.07
2017-09-26T07:54:48.781Z,27.07
2017-09-26T07:57:16.590Z,20.80
2017-09-26T07:59:44.479Z,23.10
2017-09-26T08:02:12.821Z,18.33
2017-09-26T08:04:41.912Z,19.93
2017-09-26T08:07:10.132Z,21.53
2017-09-26T08:09:38.344Z,19.00
2017-09-26T08:12:06.174Z,20.43
2017-09-26T08:14:33.979Z,24.90
2017-09-26T08:17:01.884Z,26.80
2017-09-26T08:19:29.692Z,26.23
2017-09-26T08:21:57.478Z,23.90
2017-09-26T08:24:25.200Z,28.77
2017-09-26T08:26:53.797Z,23.10
2017-09-26T08:29:21.538Z,24.47
2017-09-26T08:31:49.483Z,21.37
2017-09-26T08:34:17.276Z,22.83
2017-09-26T08:36:45.079Z,22.40
2017-09-26T08:39:12.848Z,23.97
2017-09-26T08:41:40.589Z,23.83
2017-09-26T08:44:08.321Z,22.40
2017-09-26T08:46:36.162Z,28.70
2017-09-26T08:49:03.892Z,25.97
2017-09-26T08:51:31.642Z,25.00
2017-09-26T08:53:59.462Z,21.03
2017-09-26T08:56:27.263Z,23.47
2017-09-26T08:58:55.062Z,23.93
2017-09-26T09:01:22.849Z,23.77
2017-09-26T09:03:50.662Z,26.43
2017-09-26T09:06:18.412Z,23.00
2017-09-26T09:08:46.159Z,25.53
2017-09-26T09:11:13.903Z,32.17
2017-09-26T09:13:41.638Z,20.73
2017-09-26T09:16:09.456Z,23.50
2017-09-26T09:18:37.179Z,25.47
2017-09-26T09:21:04.902Z,26.70
2017-09-26T09:23:32.703Z,31.67
2017-09-26T09:26:00.442Z,20.70
2017-09-26T09:28:28.251Z,21.13
2017-09-26T09:30:56.093Z,19.43
2017-09-26T09:33:23.873Z,22.67
2017-09-26T09:35:51.612Z,23.30
2017-09-26T09:38:19.375Z,23.73
2017-09-26T09:40:47.120Z,21.43
2017-09-26T09:43:14.885Z,22.80
2017-09-26T09:45:42.812Z,19.10
2017-09-26T09:48:10.638Z,19.07
2017-09-26T09:50:38.464Z,17.00
2017-09-26T09:53:06.294Z,18.03
2017-09-26T09:55:34.114Z,19.17
2017-09-26T09:58:01.858Z,19.60
2017-09-26T10:00:30.430Z,21.80
2017-09-26T10:02:58.218Z,22.80
2017-09-26T10:05:25.950Z,18.57
2017-09-26T10:07:53.681Z,20.63
2017-09-26T10:10:21.426Z,18.67
2017-09-26T10:12:49.157Z,21.37
2017-09-26T10:15:16.898Z,30.27
2017-09-26T10:17:44.656Z,21.67
2017-09-26T10:20:12.428Z,29.33
2017-09-26T10:22:40.183Z,26.83
2017-09-26T10:25:07.928Z,21.73
2017-09-26T10:27:35.708Z,20.43
2017-09-26T10:30:03.457Z,19.70
2017-09-26T10:32:31.252Z,21.87
2017-09-26T10:34:59.025Z,20.17
2017-09-26T10:37:26.841Z,22.57
2017-09-26T10:39:54.576Z,25.03
2017-09-26T10:42:22.335Z,20.07
2017-09-26T10:44:50.152Z,17.17
2017-09-26T10:47:17.967Z,17.50
2017-09-26T10:49:45.702Z,18.70
2017-09-26T10:52:13.427Z,14.00
2017-09-26T10:54:41.179Z,15.00
2017-09-26T10:57:08.914Z,15.30
2017-09-26T10:59:36.782Z,18.10
2017-09-26T11:02:04.520Z,16.60
2017-09-26T11:04:32.263Z,16.47
2017-09-26T11:07:00.090Z,14.43
2017-09-26T11:09:27.889Z,17.67
2017-09-26T11:11:55.637Z,19.03
2017-09-26T11:14:23.390Z,18.97
2017-09-26T11:16:51.973Z,17.03
2017-09-26T11:19:19.827Z,18.93
2017-09-26T11:21:47.676Z,17.53
2017-09-26T11:24:15.477Z,16.03
2017-09-26T11:26:43.257Z,15.77
2017-09-26T11:29:10.988Z,18.33
2017-09-26T11:31:38.821Z,16.97
2017-09-26T11:34:06.773Z,16.53
2017-09-26T11:36:34.594Z,16.27
2017-09-26T11:39:02.420Z,17.73
2017-09-26T11:41:30.260Z,16.07
2017-09-26T11:43:58.039Z,20.60
2017-09-26T11:46:25.847Z,16.83
2017-09-26T11:48:53.636Z,16.53
2017-09-26T11:51:21.573Z,16.93
2017-09-26T11:53:49.457Z,15.30
2017-09-26T11:56:17.365Z,15.47
2017-09-26T11:58:45.193Z,14.70
2017-09-26T12:01:13.037Z,13.33
2017-09-26T12:03:40.871Z,15.80
2017-09-26T12:06:08.733Z,13.77
2017-09-26T12:08:36.583Z,15.03
2017-09-26T12:11:04.456Z,15.77
2017-09-26T12:13:38.124Z,15.77
2017-09-26T12:16:05.941Z,14.60
2017-09-26T12:18:33.898Z,13.93
2017-09-26T12:21:01.834Z,14.83
2017-09-26T12:23:30.393Z,13.43
2017-09-26T12:25:58.238Z,14.00
2017-09-26T12:28:26.052Z,14.43
2017-09-26T12:30:53.891Z,13.60
2017-09-26T12:33:21.730Z,12.83
2017-09-26T12:35:49.520Z,12.53
2017-09-26T12:38:17.264Z,14.47
2017-09-26T12:40:45.153Z,11.33
2017-09-26T12:43:12.986Z,16.00
2017-09-26T12:45:40.825Z,11.00
2017-09-26T12:48:08.565Z,12.63
2017-09-26T12:50:36.374Z,11.07
2017-09-26T12:53:04.180Z,11.07
2017-09-26T12:55:32.018Z,12.00
2017-09-26T12:57:59.862Z,11.37
2017-09-26T13:00:27.661Z,9.70
2017-09-26T13:02:55.558Z,9.20
2017-09-26T13:05:23.292Z,9.03
2017-09-26T13:07:52.226Z,8.87
2017-09-26T13:10:20.055Z,9.20
2017-09-26T13:12:47.871Z,9.00
2017-09-26T13:15:15.630Z,8.80
2017-09-26T13:17:43.366Z,9.50
2017-09-26T13:20:11.146Z,8.80
2017-09-26T13:22:38.937Z,8.43
2017-09-26T13:25:06.737Z,9.93
2017-09-26T13:27:34.521Z,6.83
2017-09-26T13:30:02.516Z,8.70
2017-09-26T13:32:31.273Z,10.23
2017-09-26T13:34:59.026Z,9.20
2017-09-26T13:37:26.764Z,8.20
2017-09-26T13:39:54.483Z,8.93
2017-09-26T13:42:30.352Z,11.00
2017-09-26T13:44:58.239Z,8.63
2017-09-26T13:47:26.025Z,7.13
2017-09-26T13:49:53.821Z,7.03
2017-09-26T13:52:21.600Z,6.73
2017-09-26T13:54:49.400Z,10.27
2017-09-26T13:57:17.169Z,7.13
2017-09-26T13:59:44.995Z,6.87
2017-09-26T14:02:12.726Z,8.70
2017-09-26T14:04:40.526Z,8.50
2017-09-26T14:07:08.249Z,8.53
2017-09-26T14:09:36.025Z,7.30
2017-09-26T14:12:03.758Z,8.93
2017-09-26T14:14:31.568Z,9.10
2017-09-26T14:16:59.329Z,7.90
2017-09-26T14:19:27.071Z,9.23
2017-09-26T14:21:54.834Z,9.80
2017-09-26T14:24:22.663Z,7.13
2017-09-26T14:26:50.443Z,8.47
2017-09-26T14:29:18.258Z,7.20
2017-09-26T14:31:46.041Z,7.33
2017-09-26T14:34:13.866Z,8.90
2017-09-26T14:36:41.662Z,11.13
2017-09-26T14:39:09.409Z,7.33
2017-09-26T14:41:37.222Z,8.10
2017-09-26T14:44:05.035Z,7.07
2017-09-26T14:46:32.817Z,7.07
2017-09-26T14:49:00.586Z,7.43
2017-09-26T14:51:28.345Z,8.50
2017-09-26T14:53:56.160Z,7.83
2017-09-26T14:56:23.947Z,6.77
2017-09-26T14:58:51.822Z,7.07
2017-09-26T15:01:20.383Z,7.50
2017-09-26T15:03:48.260Z,8.13
2017-09-26T15:06:25.489Z,7.33
2017-09-26T15:08:53.260Z,8.63
2017-09-26T15:11:21.848Z,7.97
2017-09-26T15:13:49.652Z,7.07
2017-09-26T15:16:17.410Z,8.37
2017-09-26T15:18:45.239Z,7.77
2017-09-26T15:21:13.331Z,8.07
2017-09-26T15:23:41.217Z,9.70
2017-09-26T15:26:09.227Z,10.03
2017-09-26T15:28:37.722Z,9.00
2017-09-26T15:31:05.706Z,9.77
2017-09-26T15:33:34.325Z,10.50
2017-09-26T15:36:02.098Z,7.63
2017-09-26T15:38:29.942Z,7.37
2017-09-26T15:40:59.759Z,9.00
2017-09-26T15:43:27.637Z,15.03
2017-09-26T15:45:55.371Z,9.00
2017-09-26T15:48:24.060Z,7.87
2017-09-26T15:50:52.712Z,7.97
2017-09-26T15:53:20.576Z,8.70
2017-09-26T15:55:48.334Z,15.87
2017-09-26T15:58:16.117Z,8.33
2017-09-26T16:00:43.900Z,7.10
2017-09-26T16:03:11.711Z,10.60
2017-09-26T16:05:39.618Z,13.33
2017-09-26T16:08:07.454Z,6.97
2017-09-26T16:10:35.270Z,7.33
2017-09-26T16:13:03.028Z,8.00
2017-09-26T16:15:30.770Z,8.80
2017-09-26T16:17:58.639Z,9.20
2017-09-26T16:20:26.528Z,9.43
2017-09-26T16:22:54.402Z,10.70
2017-09-26T16:25:22.214Z,9.80
2017-09-26T16:27:50.056Z,11.43
2017-09-26T16:30:17.797Z,8.13
2017-09-26T16:32:45.622Z,10.27
2017-09-26T16:35:14.249Z,8.07
2017-09-26T16:37:42.061Z,10.07
2017-09-26T16:40:09.795Z,8.50
2017-09-26T16:42:37.571Z,15.80
2017-09-26T16:45:06.333Z,8.87
2017-09-26T16:47:34.047Z,7.20
2017-09-26T16:50:01.973Z,9.77
2017-09-26T16:52:29.706Z,9.43
2017-09-26T16:54:57.467Z,7.70
2017-09-26T16:57:25.274Z,8.20
2017-09-26T16:59:54.166Z,7.33
2017-09-26T17:02:21.938Z,8.07
2017-09-26T17:04:49.765Z,7.00
2017-09-26T17:07:17.866Z,6.53
2017-09-26T17:09:46.032Z,15.33
2017-09-26T17:12:13.869Z,6.00
2017-09-26T17:14:46.038Z,10.70
2017-09-26T17:17:14.001Z,5.90
2017-09-26T17:19:41.810Z,7.73
2017-09-26T17:22:09.654Z,7.00
2017-09-26T17:24:37.506Z,8.70
2017-09-26T17:27:05.326Z,7.50
2017-09-26T17:29:37.354Z,8.20
2017-09-26T17:32:07.338Z,7.60
2017-09-26T17:34:35.277Z,9.47
2017-09-26T17:37:03.182Z,10.53
2017-09-26T17:39:31.839Z,9.53
2017-09-26T17:42:01.010Z,10.20
2017-09-26T17:44:28.805Z,7.03
2017-09-26T17:46:56.658Z,11.57
2017-09-26T17:49:24.479Z,10.10
2017-09-26T17:51:52.260Z,9.00
2017-09-26T17:54:19.981Z,8.40
2017-09-26T17:56:47.748Z,10.17
2017-09-26T17:59:15.549Z,10.63
2017-09-26T18:01:43.381Z,12.20
2017-09-26T18:04:11.172Z,11.97
2017-09-26T18:06:38.938Z,14.33
2017-09-26T18:09:06.871Z,13.73
2017-09-26T18:11:35.448Z,8.10
2017-09-26T18:14:03.371Z,11.80
2017-09-26T18:16:31.192Z,10.40
2017-09-26T18:18:59.002Z,13.70
2017-09-26T18:21:26.981Z,11.07
2017-09-26T18:23:54.719Z,11.30
2017-09-26T18:26:22.534Z,15.60
2017-09-26T18:28:50.371Z,18.50
2017-09-26T18:31:18.261Z,12.47
2017-09-26T18:33:46.051Z,13.50
2017-09-26T18:36:13.811Z,14.17
2017-09-26T18:38:41.531Z,15.07
2017-09-26T18:41:12.129Z,12.33
2017-09-26T18:43:42.739Z,15.47
2017-09-26T18:46:16.619Z,13.20
2017-09-26T19:06:15.383Z,12.43
2017-09-26T19:08:43.267Z,10.53
2017-09-26T19:11:11.080Z,14.83
2017-09-26T19:13:39.776Z,11.40
2017-09-26T19:16:07.799Z,13.60
2017-09-26T19:18:35.694Z,13.03
2017-09-26T19:21:03.464Z,12.83
2017-09-26T19:23:32.870Z,14.13
2017-09-26T19:26:01.701Z,13.13
2017-09-26T19:28:30.651Z,14.50
2017-09-26T19:30:59.398Z,15.77
2017-09-26T19:33:27.530Z,16.97
2017-09-26T19:35:56.426Z,13.97
2017-09-26T19:38:25.777Z,14.80
2017-09-26T19:40:55.144Z,19.50
2017-09-26T19:43:23.114Z,14.43
2017-09-26T19:45:50.956Z,17.50
2017-09-26T19:48:19.769Z,34.07
2017-09-26T19:50:47.795Z,18.90
2017-09-26T19:53:15.723Z,12.73
2017-09-26T19:56:29.298Z,15.60
2017-09-26T19:58:59.025Z,14.93
2017-09-26T20:01:30.191Z,12.10
2017-09-26T20:03:59.593Z,14.20
2017-09-26T20:06:30.031Z,17.73
2017-09-26T20:25:24.851Z,15.20
2017-09-26T20:27:52.656Z,16.43
2017-09-26T20:30:20.484Z,11.87
2017-09-26T20:32:49.062Z,16.63
2017-09-26T20:35:16.855Z,14.03
2017-09-26T20:38:03.609Z,14.90
2017-09-26T20:57:57.782Z,14.17
2017-09-26T21:00:29.910Z,16.57
2017-09-26T21:06:16.826Z,10.93
2017-09-26T21:08:50.648Z,12.07
2017-09-26T21:11:26.482Z,14.57
2017-09-26T21:14:00.773Z,12.90
2017-09-26T21:19:14.099Z,15.60
2017-09-26T21:21:43.506Z,10.50
2017-09-26T21:24:13.371Z,9.87
2017-09-26T21:26:42.503Z,9.20
2017-09-26T21:29:11.429Z,14.37
2017-09-26T21:31:42.229Z,12.17
2017-09-26T21:34:10.309Z,14.13
2017-09-26T21:36:38.201Z,9.97
2017-09-26T21:39:06.591Z,14.33
2017-09-26T21:41:34.458Z,10.93
2017-09-26T21:44:02.328Z,14.40
2017-09-26T21:46:30.105Z,12.17
2017-09-26T21:48:59.636Z,12.50
2017-09-26T21:51:28.141Z,11.33
2017-09-26T21:53:55.961Z,10.87
2017-09-26T21:56:23.775Z,12.90
2017-09-26T21:58:51.587Z,15.83
2017-09-26T22:01:19.328Z,18.00
2017-09-26T22:03:47.091Z,14.53
2017-09-26T22:06:14.886Z,14.20
2017-09-26T22:08:42.693Z,11.73
2017-09-26T22:11:11.368Z,13.63
2017-09-26T22:13:41.007Z,11.77
2017-09-26T22:16:08.773Z,11.27
2017-09-26T22:18:37.567Z,13.93
2017-09-26T22:21:05.325Z,14.87
2017-09-26T22:23:34.175Z,17.07
2017-09-26T22:26:01.989Z,12.63
2017-09-26T22:28:40.325Z,13.20
2017-09-26T22:31:08.166Z,11.13
2017-09-26T22:33:36.725Z,12.13
2017-09-26T22:36:04.637Z,14.53
2017-09-26T22:38:33.531Z,14.57
2017-09-26T22:41:01.424Z,10.07
2017-09-26T22:43:29.182Z,15.50
2017-09-26T22:45:56.937Z,14.00
2017-09-26T22:48:24.793Z,14.77
2017-09-26T22:50:52.644Z,12.40
2017-09-26T22:53:20.488Z,14.33
2017-09-26T22:55:48.409Z,14.97
2017-09-26T22:58:17.107Z,13.20
2017-09-26T23:00:45.703Z,14.13
2017-09-26T23:03:13.960Z,11.43
2017-09-26T23:05:41.766Z,14.90
2017-09-26T23:08:09.680Z,12.27
2017-09-26T23:10:37.510Z,13.77
2017-09-26T23:13:09.524Z,14.63
2017-09-26T23:15:37.339Z,12.10
2017-09-26T23:18:05.560Z,14.30
2017-09-26T23:20:33.334Z,12.30
2017-09-26T23:23:01.151Z,13.60
2017-09-26T23:25:37.325Z,13.97
2017-09-26T23:28:05.593Z,14.13
2017-09-26T23:30:33.446Z,11.37
2017-09-26T23:33:01.249Z,11.33
2017-09-26T23:35:29.008Z,10.73
2017-09-26T23:37:56.831Z,14.90
2017-09-26T23:40:24.584Z,14.77
2017-09-26T23:42:52.404Z,13.40
2017-09-26T23:45:20.305Z,10.30
2017-09-26T23:47:48.835Z,14.00
2017-09-26T23:50:16.673Z,14.30
2017-09-26T23:52:44.467Z,15.87
2017-09-26T23:55:12.220Z,13.90
2017-09-26T23:57:40.064Z,14.50
